Time;durP1;ratioP1;P1;durP2;ratioP2;P2;SDS_P1;SDS_P2;PMS_P1;PMS_P2;Temp;Humidity;BMP_temperature;BMP_pressure;BME280_temperature;BME280_humidity;BME280_pressure;Samples;Min_cycle;Max_cycle;Signal;HPM_P1;HPM_P2
2022/12/04 00:01:47;;;;;;;39.88;26.95;;;8.30;99.90;;;;;;5113644;28;20027;-63
2022/12/04 00:04:13;;;;;;;46.25;28.83;;;8.30;99.90;;;;;;5113596;28;20067;-65
2022/12/04 00:06:39;;;;;;;38.70;26.85;;;8.20;99.90;;;;;;5113390;28;20023;-62
2022/12/04 00:09:05;;;;;;;49.53;30.67;;;8.10;99.90;;;;;;5113440;28;20027;-63
2022/12/04 00:11:32;;;;;;;50.38;30.65;;;8.10;99.90;;;;;;5113346;28;20073;-64
2022/12/04 00:13:59;;;;;;;39.33;25.95;;;8.20;99.90;;;;;;5113297;28;20458;-61
2022/12/04 00:16:30;;;;;;;34.65;23.08;;;8.10;99.90;;;;;;5113412;28;20035;-66
2022/12/04 00:18:57;;;;;;;42.75;27.50;;;8.10;99.90;;;;;;5113328;28;20023;-66
2022/12/04 00:21:24;;;;;;;51.03;33.05;;;8.10;99.90;;;;;;5113207;28;20020;-60
2022/12/04 00:23:50;;;;;;;37.30;25.58;;;8.10;99.90;;;;;;5113577;28;20019;-63
2022/12/04 00:26:25;;;;;;;35.47;24.70;;;8.10;99.90;;;;;;5113396;28;20036;-65
2022/12/04 00:28:51;;;;;;;48.25;30.67;;;8.00;99.90;;;;;;5113508;28;20031;-64
2022/12/04 00:31:22;;;;;;;41.42;27.40;;;8.00;99.90;;;;;;5113526;28;20019;-59
2022/12/04 00:33:48;;;;;;;41.17;26.77;;;8.00;99.90;;;;;;5112798;28;20062;-62
2022/12/04 00:36:17;;;;;;;37.97;24.88;;;8.00;99.90;;;;;;5113072;28;20050;-66
2022/12/04 00:38:43;;;;;;;45.08;27.55;;;8.10;99.90;;;;;;5113175;28;20458;-64
2022/12/04 00:41:14;;;;;;;48.90;29.00;;;8.10;99.90;;;;;;5113000;28;20110;-63
2022/12/04 00:43:41;;;;;;;36.58;25.38;;;8.10;99.90;;;;;;5116677;28;20024;-65
2022/12/04 00:46:08;;;;;;;40.17;25.95;;;8.10;99.90;;;;;;5116787;28;20522;-59
2022/12/04 00:48:33;;;;;;;37.28;25.05;;;8.10;99.90;;;;;;5116904;28;20020;-60
2022/12/04 00:51:07;;;;;;;44.60;26.70;;;8.10;99.90;;;;;;5117257;28;20072;-62
2022/12/04 00:53:33;;;;;;;69.57;35.80;;;8.10;99.90;;;;;;5116711;28;20024;-65
2022/12/04 00:56:07;;;;;;;50.88;31.95;;;8.20;99.90;;;;;;5116356;28;20435;-61
2022/12/04 00:58:33;;;;;;;43.45;28.98;;;8.10;99.90;;;;;;5116884;28;20054;-63
2022/12/04 01:01:08;;;;;;;51.75;31.45;;;8.00;99.90;;;;;;5116682;28;20027;-65
2022/12/04 01:03:34;;;;;;;57.30;33.85;;;8.00;99.90;;;;;;5116681;28;20019;-67
2022/12/04 01:06:01;;;;;;;63.22;36.60;;;8.00;99.90;;;;;;5116468;28;20023;-64
2022/12/04 01:08:26;;;;;;;60.90;37.20;;;8.00;99.90;;;;;;5116405;28;20019;-62
2022/12/04 01:10:52;;;;;;;59.33;35.25;;;8.00;99.90;;;;;;5116218;28;20389;-63
2022/12/04 01:13:18;;;;;;;70.70;38.67;;;7.90;99.90;;;;;;5116517;28;20022;-65
2022/12/04 01:15:44;;;;;;;61.83;37.33;;;7.90;99.90;;;;;;5116167;28;20028;-63
2022/12/04 01:18:10;;;;;;;64.13;36.75;;;7.90;99.90;;;;;;5116191;28;20016;-61
2022/12/04 01:20:36;;;;;;;54.30;33.10;;;7.90;99.90;;;;;;5116417;28;20030;-68
2022/12/04 01:23:02;;;;;;;63.15;37.33;;;7.90;99.90;;;;;;5116035;28;20473;-62
2022/12/04 01:25:28;;;;;;;65.97;38.40;;;7.90;99.90;;;;;;5116133;28;20477;-62
2022/12/04 01:27:53;;;;;;;60.30;37.70;;;7.80;99.90;;;;;;5115929;28;20023;-62
2022/12/04 01:30:19;;;;;;;65.40;38.55;;;7.70;99.90;;;;;;5115991;28;20101;-61
2022/12/04 01:32:45;;;;;;;59.38;34.55;;;7.70;99.90;;;;;;5115935;28;20023;-64
2022/12/04 01:35:10;;;;;;;45.78;29.38;;;7.70;99.90;;;;;;5115504;28;20494;-61
2022/12/04 01:37:36;;;;;;;56.45;34.63;;;7.80;99.90;;;;;;5115552;28;20081;-63
2022/12/04 01:40:02;;;;;;;50.65;32.00;;;7.80;99.90;;;;;;5115767;28;20110;-63
2022/12/04 01:42:28;;;;;;;38.42;26.17;;;7.70;99.90;;;;;;5115693;28;20020;-61
2022/12/04 01:45:27;;;;;;;41.03;26.48;;;7.80;99.90;;;;;;5115620;28;20081;-64
2022/12/04 01:47:57;;;;;;;40.85;26.05;;;7.80;99.90;;;;;;5115512;28;20020;-65
2022/12/04 01:50:23;;;;;;;33.38;24.25;;;7.80;99.90;;;;;;5114375;28;20389;-61
2022/12/04 01:52:50;;;;;;;41.60;26.25;;;7.90;99.90;;;;;;5115415;28;20020;-63
2022/12/04 01:55:16;;;;;;;54.20;30.77;;;7.90;99.90;;;;;;5115326;28;20024;-66
2022/12/04 01:57:41;;;;;;;42.65;29.52;;;7.90;99.90;;;;;;5115387;28;20489;-63
2022/12/04 02:00:15;;;;;;;55.85;33.47;;;7.80;99.90;;;;;;5115691;28;20024;-64
2022/12/04 02:02:44;;;;;;;45.20;29.92;;;7.70;99.90;;;;;;5115355;28;20030;-62
2022/12/04 02:05:12;;;;;;;45.35;28.27;;;7.70;99.90;;;;;;5115605;28;20039;-67
2022/12/04 02:07:39;;;;;;;34.40;23.67;;;7.80;99.90;;;;;;5115262;28;20019;-62
2022/12/04 02:10:08;;;;;;;37.50;23.88;;;7.80;99.90;;;;;;5115230;28;20106;-61
2022/12/04 02:13:04;;;;;;;34.53;24.40;;;7.80;99.90;;;;;;5115192;28;20028;-67
2022/12/04 02:15:52;;;;;;;30.90;22.00;;;7.80;99.90;;;;;;5115007;28;20131;-64
2022/12/04 02:18:56;;;;;;;38.38;24.52;;;7.80;99.90;;;;;;5114970;28;20174;-63
2022/12/04 02:21:30;;;;;;;53.72;32.63;;;7.90;99.90;;;;;;5114845;28;20020;-62
2022/12/04 02:24:11;;;;;;;45.75;29.80;;;7.80;99.90;;;;;;5114955;28;20051;-60
2022/12/04 02:27:09;;;;;;;41.97;28.63;;;7.60;99.90;;;;;;5114783;28;20119;-63
2022/12/04 02:30:03;;;;;;;51.35;30.60;;;7.60;99.90;;;;;;5110724;28;20165;-63
2022/12/04 02:32:46;;;;;;;73.80;42.80;;;7.60;99.90;;;;;;5114888;28;20023;-65
